createdAt,value
2023-03-01T00:01:19.938Z,102923.25
2023-03-01T00:03:46.768Z,102817.06
2023-03-01T00:06:13.880Z,102940.19
2023-03-01T00:08:40.722Z,102937.16
2023-03-01T00:11:14.841Z,102945.31
2023-03-01T00:13:42.216Z,102846.47
2023-03-01T00:16:12.009Z,102762.19
2023-03-01T00:18:38.589Z,102956.53
2023-03-01T00:21:06.301Z,102956.88
2023-03-01T00:23:35.501Z,102869.44
2023-03-01T00:26:02.296Z,102929.69
2023-03-01T00:28:28.883Z,102931.22
2023-03-01T00:30:55.499Z,102742.41
2023-03-01T00:33:22.113Z,102894.25
2023-03-01T00:35:48.832Z,102912.88
2023-03-01T00:38:15.421Z,102819.34
2023-03-01T00:40:41.954Z,102886.91
2023-03-01T00:43:09.231Z,102890.88
2023-03-01T00:45:35.701Z,102856.03
2023-03-01T00:48:02.397Z,102881.69
2023-03-01T00:50:29.114Z,102935.13
2023-03-01T00:52:56.746Z,102813.63
2023-03-01T00:55:24.661Z,102833.19
2023-03-01T00:57:51.385Z,102799.59
2023-03-01T01:00:19.194Z,102904.25
2023-03-01T01:02:48.626Z,102875.69
2023-03-01T01:05:15.693Z,102793.50
2023-03-01T01:07:42.273Z,102891.16
2023-03-01T01:10:09.638Z,102769.38
2023-03-01T01:12:36.374Z,102840.59
2023-03-01T01:15:03.123Z,102905.56
2023-03-01T01:17:29.800Z,102751.38
2023-03-01T01:19:56.444Z,102870.88
2023-03-01T01:22:23.766Z,102837.56
2023-03-01T01:24:50.354Z,102765.59
2023-03-01T01:27:16.922Z,102770.03
2023-03-01T01:29:43.554Z,102831.94
2023-03-01T01:32:10.167Z,102630.50
2023-03-01T01:34:36.874Z,102724.53
2023-03-01T01:37:03.877Z,102863.59
2023-03-01T01:39:30.641Z,102747.28
2023-03-01T01:41:57.392Z,102859.63
2023-03-01T01:44:27.425Z,102807.03
2023-03-01T01:47:04.676Z,102789.63
2023-03-01T01:49:45.674Z,102867.75
2023-03-01T01:52:23.593Z,102869.59
2023-03-01T01:54:56.289Z,102816.84
2023-03-01T01:57:26.962Z,102848.03
2023-03-01T01:59:59.065Z,102729.56
2023-03-01T02:02:27.222Z,102826.31
2023-03-01T02:05:04.584Z,102756.00
2023-03-01T02:07:32.142Z,102804.47
2023-03-01T02:09:59.374Z,102823.28
2023-03-01T02:12:26.786Z,102852.63
2023-03-01T02:14:53.391Z,102656.09
2023-03-01T02:17:21.813Z,102806.91
2023-03-01T02:20:09.889Z,102869.38
2023-03-01T02:22:38.672Z,102697.91
2023-03-01T02:25:20.161Z,102864.63
2023-03-01T02:28:09.239Z,102851.28
2023-03-01T02:30:35.960Z,102773.19
2023-03-01T02:33:04.538Z,102798.25
2023-03-01T02:35:34.977Z,102846.06
2023-03-01T02:38:04.304Z,102821.00
2023-03-01T02:40:32.370Z,102728.41
2023-03-01T02:43:00.171Z,102724.72
2023-03-01T02:45:28.030Z,102815.75
2023-03-01T02:47:56.306Z,102772.97
2023-03-01T02:50:29.279Z,102852.22
2023-03-01T02:53:06.013Z,102844.84
2023-03-01T02:55:32.906Z,102778.09
2023-03-01T02:58:03.924Z,102634.44
2023-03-01T03:00:40.930Z,102791.22
2023-03-01T03:03:08.132Z,102715.81
2023-03-01T03:05:34.773Z,102731.97
2023-03-01T03:08:04.273Z,102833.56
2023-03-01T03:10:38.004Z,102810.59
2023-03-01T03:13:08.084Z,102840.56
2023-03-01T03:15:39.426Z,102740.41
2023-03-01T03:18:10.721Z,102811.38
2023-03-01T03:20:38.746Z,102848.81
2023-03-01T03:23:05.310Z,102815.53
2023-03-01T03:25:31.812Z,102803.13
2023-03-01T03:27:59.218Z,102738.28
2023-03-01T03:30:29.790Z,102857.59
2023-03-01T03:32:57.929Z,102734.06
2023-03-01T03:35:29.715Z,102604.94
2023-03-01T03:38:03.702Z,102720.16
2023-03-01T03:40:38.915Z,102704.91
2023-03-01T03:43:11.094Z,102816.22
2023-03-01T03:45:37.746Z,102723.56
2023-03-01T03:48:06.965Z,102762.22
2023-03-01T03:50:34.396Z,102699.91
2023-03-01T03:53:02.371Z,102832.72
2023-03-01T03:55:31.455Z,102804.59
2023-03-01T03:58:02.288Z,102705.50
2023-03-01T04:00:29.388Z,102821.88
2023-03-01T04:02:57.419Z,102704.28
2023-03-01T04:05:24.592Z,102718.22
2023-03-01T04:08:01.966Z,102812.28
2023-03-01T04:10:33.715Z,102710.41
2023-03-01T04:13:00.313Z,102755.16
2023-03-01T04:15:28.022Z,102809.19
2023-03-01T04:17:55.981Z,102706.16
2023-03-01T04:20:30.876Z,102678.88
2023-03-01T04:23:17.300Z,102682.50
2023-03-01T04:25:54.440Z,102771.72
2023-03-01T04:28:35.146Z,102626.06
2023-03-01T04:31:14.321Z,102748.78
2023-03-01T04:33:49.481Z,102751.56
2023-03-01T04:36:17.550Z,102793.44
2023-03-01T04:38:48.300Z,102762.41
2023-03-01T04:41:17.672Z,102765.94
2023-03-01T04:43:44.544Z,102784.16
2023-03-01T04:46:16.713Z,102676.91
2023-03-01T04:48:45.320Z,102692.03
2023-03-01T04:51:14.334Z,102596.66
2023-03-01T04:53:41.795Z,102689.63
2023-03-01T04:56:08.942Z,102779.88
2023-03-01T04:58:35.667Z,102792.53
2023-03-01T05:01:02.278Z,102669.75
2023-03-01T05:03:29.599Z,102756.78
2023-03-01T05:06:00.528Z,102671.13
2023-03-01T05:08:27.856Z,102685.34
2023-03-01T05:10:55.342Z,102761.97
2023-03-01T05:13:22.642Z,102774.81
2023-03-01T05:15:55.998Z,102649.13
2023-03-01T05:18:26.892Z,102712.03
2023-03-01T05:20:57.100Z,102769.66
2023-03-01T05:23:24.214Z,102695.59
2023-03-01T05:25:53.240Z,102637.09
2023-03-01T05:28:20.819Z,102726.88
2023-03-01T05:30:48.297Z,102628.56
2023-03-01T05:33:15.194Z,102623.38
2023-03-01T05:35:43.919Z,102634.69
2023-03-01T05:38:14.534Z,102709.81
2023-03-01T05:40:45.907Z,102720.81
2023-03-01T05:43:14.416Z,102733.03
2023-03-01T05:45:41.893Z,102721.25
2023-03-01T05:48:09.835Z,102622.19
2023-03-01T05:50:40.073Z,102616.69
2023-03-01T05:53:27.487Z,102749.25
2023-03-01T05:55:54.191Z,102607.22
2023-03-01T05:58:21.125Z,102745.59
2023-03-01T06:00:49.030Z,102715.66
2023-03-01T06:03:17.218Z,102681.59
2023-03-01T06:05:44.604Z,102715.34
2023-03-01T06:08:12.548Z,102547.16
2023-03-01T06:10:39.928Z,102715.97
2023-03-01T06:13:06.663Z,102718.53
2023-03-01T06:15:33.423Z,102763.47
2023-03-01T06:18:00.512Z,102722.69
2023-03-01T06:20:29.348Z,102633.81
2023-03-01T06:22:56.165Z,102751.06
2023-03-01T06:25:25.073Z,102634.72
2023-03-01T06:27:53.213Z,102724.50
2023-03-01T06:30:21.620Z,102630.72
2023-03-01T06:32:48.252Z,102696.97
2023-03-01T06:35:19.934Z,102621.56
2023-03-01T06:37:47.986Z,102708.88
2023-03-01T06:40:15.941Z,102719.69
2023-03-01T06:42:44.265Z,102700.47
2023-03-01T06:45:11.409Z,102740.91
2023-03-01T06:47:38.058Z,102616.63
2023-03-01T06:50:05.180Z,102691.09
2023-03-01T06:52:32.533Z,102616.88
2023-03-01T06:54:59.109Z,102717.00
2023-03-01T06:57:25.728Z,102700.19
2023-03-01T06:59:52.310Z,102722.63
2023-03-01T07:02:19.006Z,102634.97
2023-03-01T07:04:45.523Z,102695.97
2023-03-01T07:07:12.369Z,102620.22
2023-03-01T07:09:38.960Z,102589.69
2023-03-01T07:12:05.916Z,102628.53
2023-03-01T07:14:32.915Z,102735.56
2023-03-01T07:16:59.581Z,102725.69
2023-03-01T07:19:26.317Z,102634.31
2023-03-01T07:21:52.890Z,102734.53
2023-03-01T07:24:19.518Z,102718.75
2023-03-01T07:26:50.068Z,102648.56
2023-03-01T07:29:16.843Z,102721.94
2023-03-01T07:31:43.678Z,102638.50
2023-03-01T07:34:11.622Z,102733.03
2023-03-01T07:36:38.862Z,102638.81
2023-03-01T07:39:05.381Z,102751.53
2023-03-01T07:41:31.936Z,102747.41
2023-03-01T07:43:58.501Z,102739.03
2023-03-01T07:46:25.168Z,102747.75
2023-03-01T07:48:51.654Z,102720.97
2023-03-01T07:51:19.849Z,102728.16
2023-03-01T07:53:49.057Z,102726.69
2023-03-01T07:56:19.234Z,102737.81
2023-03-01T07:58:46.323Z,102656.44
2023-03-01T08:01:17.727Z,102657.41
2023-03-01T08:03:44.952Z,102652.63
2023-03-01T08:06:14.267Z,102721.19
2023-03-01T08:08:41.127Z,102737.91
2023-03-01T08:11:11.078Z,102730.06
2023-03-01T08:13:43.900Z,102748.66
2023-03-01T08:16:15.874Z,102592.97
2023-03-01T08:18:43.781Z,102754.31
2023-03-01T08:21:14.217Z,102740.28
2023-03-01T08:23:42.335Z,102688.09
2023-03-01T08:26:17.984Z,102662.06
2023-03-01T08:28:45.070Z,102726.91
2023-03-01T08:31:28.396Z,102638.31
2023-03-01T08:34:01.784Z,102642.97
2023-03-01T08:36:31.991Z,102735.19
2023-03-01T08:38:59.023Z,102726.06
2023-03-01T08:41:26.120Z,102720.75
2023-03-01T08:43:53.753Z,102680.69
2023-03-01T08:46:20.271Z,102713.47
2023-03-01T08:48:46.766Z,102712.56
2023-03-01T08:51:19.077Z,102608.44
2023-03-01T08:53:46.143Z,102700.22
2023-03-01T08:56:13.290Z,102616.91
2023-03-01T08:58:40.898Z,102678.78
2023-03-01T09:01:09.050Z,102691.28
2023-03-01T09:03:35.632Z,102701.75
2023-03-01T09:06:03.887Z,102559.19
2023-03-01T09:08:30.730Z,102713.69
2023-03-01T09:10:57.568Z,102686.19
2023-03-01T09:13:28.189Z,102687.47
2023-03-01T09:15:54.685Z,102662.34
2023-03-01T09:18:21.148Z,102690.78
2023-03-01T09:20:47.653Z,102615.34
2023-03-01T09:23:14.262Z,102642.38
2023-03-01T09:25:40.801Z,102677.94
2023-03-01T09:28:07.542Z,102686.88
2023-03-01T09:30:34.208Z,102679.63
2023-03-01T09:33:00.728Z,102679.88
2023-03-01T09:35:27.290Z,102676.97
2023-03-01T09:37:53.843Z,102669.22
2023-03-01T09:40:23.964Z,102666.09
2023-03-01T09:43:06.770Z,102591.41
2023-03-01T09:45:39.028Z,102679.88
2023-03-01T09:48:13.695Z,102669.63
2023-03-01T09:50:44.520Z,102636.06
2023-03-01T09:53:15.888Z,102578.19
2023-03-01T09:55:51.753Z,102597.91
2023-03-01T09:58:46.238Z,102644.63
2023-03-01T10:01:33.689Z,102597.59
2023-03-01T10:04:26.216Z,102628.59
2023-03-01T10:07:17.885Z,102573.56
2023-03-01T10:09:46.934Z,102620.91
2023-03-01T10:12:20.987Z,102610.03
2023-03-01T10:15:23.223Z,102612.91
2023-03-01T10:17:57.134Z,102504.94
2023-03-01T10:20:24.952Z,102613.19
2023-03-01T10:22:53.551Z,102523.44
2023-03-01T10:25:43.655Z,102601.78
2023-03-01T10:28:30.550Z,102602.22
2023-03-01T10:30:59.502Z,102600.41
2023-03-01T10:33:29.922Z,102585.38
2023-03-01T10:35:56.475Z,102575.88
2023-03-01T10:38:23.715Z,102504.28
2023-03-01T10:41:06.253Z,102577.22
2023-03-01T10:44:01.101Z,102576.97
2023-03-01T10:46:35.436Z,102570.59
2023-03-01T10:49:21.346Z,102582.97
2023-03-01T10:51:53.198Z,102488.66
2023-03-01T10:54:32.470Z,102523.50
2023-03-01T10:57:04.834Z,102494.53
2023-03-01T10:59:39.945Z,102587.75
2023-03-01T11:02:24.976Z,102514.13
2023-03-01T11:05:14.081Z,102577.78
2023-03-01T11:07:54.512Z,102567.84
2023-03-01T11:10:33.076Z,102574.19
2023-03-01T11:13:18.229Z,102571.19
2023-03-01T11:16:00.276Z,102565.19
2023-03-01T11:18:44.260Z,102492.88
2023-03-01T11:21:12.796Z,102579.88
2023-03-01T11:23:40.762Z,102530.75
2023-03-01T11:26:12.294Z,102486.56
2023-03-01T11:28:42.131Z,102548.56
2023-03-01T11:31:15.882Z,102567.84
2023-03-01T11:33:55.034Z,102567.63
2023-03-01T11:36:36.654Z,102556.63
2023-03-01T11:39:21.773Z,102550.72
2023-03-01T11:41:53.469Z,102552.22
2023-03-01T11:44:26.222Z,102520.69
2023-03-01T11:47:09.612Z,102537.03
2023-03-01T11:49:55.043Z,102541.84
2023-03-01T11:52:50.606Z,102555.34
2023-03-01T11:55:31.591Z,102543.50
2023-03-01T11:58:03.847Z,102544.97
2023-03-01T12:00:36.354Z,102553.66
2023-03-01T12:03:14.854Z,102538.94
2023-03-01T12:06:04.306Z,102444.03
2023-03-01T12:08:43.712Z,102522.97
2023-03-01T12:11:30.367Z,102523.00
2023-03-01T12:14:11.859Z,102536.00
2023-03-01T12:16:48.422Z,102513.28
2023-03-01T12:19:39.885Z,102518.41
2023-03-01T12:22:21.667Z,102506.16
2023-03-01T12:25:13.267Z,102506.06
2023-03-01T12:27:51.825Z,102504.88
2023-03-01T12:30:41.744Z,102422.66
2023-03-01T12:33:23.409Z,102518.53
2023-03-01T12:36:20.766Z,102514.19
2023-03-01T12:38:51.689Z,102429.13
2023-03-01T12:41:39.179Z,102509.16
2023-03-01T12:44:40.301Z,102470.22
2023-03-01T12:47:37.580Z,102485.25
2023-03-01T12:50:19.652Z,102477.44
2023-03-01T12:52:53.475Z,102477.53
2023-03-01T12:55:36.507Z,102469.13
2023-03-01T12:58:49.855Z,102469.66
2023-03-01T13:01:33.928Z,102464.88
2023-03-01T13:04:19.288Z,102466.88
2023-03-01T13:06:51.538Z,102463.59
2023-03-01T13:09:35.964Z,102454.13
2023-03-01T13:12:06.056Z,102445.41
2023-03-01T13:14:37.180Z,102452.47
2023-03-01T13:17:03.831Z,102432.91
2023-03-01T13:19:32.257Z,102337.34
2023-03-01T13:21:59.953Z,102432.50
2023-03-01T13:24:39.533Z,102418.34
2023-03-01T13:27:12.107Z,102435.16
2023-03-01T13:29:48.845Z,102425.00
2023-03-01T13:32:31.637Z,102426.03
2023-03-01T13:35:20.584Z,102422.88
2023-03-01T13:37:47.908Z,102403.84
2023-03-01T13:40:20.518Z,102406.66
2023-03-01T13:43:04.263Z,102414.78
2023-03-01T13:45:42.061Z,102395.03
2023-03-01T13:48:30.096Z,102398.41
2023-03-01T13:51:15.339Z,102382.81
2023-03-01T13:53:45.931Z,102293.28
2023-03-01T13:56:20.406Z,102374.25
2023-03-01T13:59:00.862Z,102375.13
2023-03-01T14:01:36.829Z,102311.38
2023-03-01T14:04:05.157Z,102366.22
2023-03-01T14:06:36.596Z,102363.69
2023-03-01T14:09:16.006Z,102283.81
2023-03-01T14:12:07.404Z,102369.06
2023-03-01T14:14:55.378Z,102361.38
2023-03-01T14:18:03.527Z,102358.91
2023-03-01T14:20:33.215Z,102353.28
2023-03-01T14:23:03.461Z,102257.88
2023-03-01T14:25:35.728Z,102350.31
2023-03-01T14:28:18.944Z,102339.81
2023-03-01T14:30:53.881Z,102324.16
2023-03-01T14:33:34.381Z,102288.91
2023-03-01T14:36:06.591Z,102335.63
2023-03-01T14:38:41.589Z,102336.28
2023-03-01T14:41:16.136Z,102313.28
2023-03-01T14:43:47.826Z,102314.31
2023-03-01T14:46:26.435Z,102325.09
2023-03-01T14:48:57.126Z,102299.44
2023-03-01T14:51:24.058Z,102320.84
2023-03-01T14:53:51.990Z,102225.94
2023-03-01T14:56:19.666Z,102302.75
2023-03-01T14:58:49.596Z,102297.78
2023-03-01T15:01:18.375Z,102294.06
2023-03-01T15:03:50.777Z,102283.94
2023-03-01T15:06:23.222Z,102214.25
2023-03-01T15:08:53.010Z,102301.69
2023-03-01T15:11:33.747Z,102229.63
2023-03-01T15:14:00.749Z,102298.31
2023-03-01T15:16:31.484Z,102311.06
2023-03-01T15:19:02.656Z,102303.06
2023-03-01T15:21:34.957Z,102313.53
2023-03-01T15:24:20.789Z,102310.16
2023-03-01T15:27:02.620Z,102314.47
2023-03-01T15:29:34.177Z,102216.69
2023-03-01T15:32:05.957Z,102223.69
2023-03-01T15:34:33.451Z,102308.72
2023-03-01T15:37:02.729Z,102312.25
2023-03-01T15:39:40.551Z,102307.41
2023-03-01T15:42:28.892Z,102314.88
2023-03-01T15:45:21.852Z,102305.63
2023-03-01T15:47:49.764Z,102308.25
2023-03-01T15:50:34.380Z,102299.66
2023-03-01T15:53:05.154Z,102305.94
2023-03-01T15:55:34.060Z,102295.25
2023-03-01T15:58:11.340Z,102293.75
2023-03-01T16:00:40.925Z,102291.84
2023-03-01T16:03:13.699Z,102298.16
2023-03-01T16:05:40.377Z,102192.22
2023-03-01T16:08:07.708Z,102287.78
2023-03-01T16:10:35.042Z,102286.03
2023-03-01T16:13:01.618Z,102188.66
2023-03-01T16:15:35.423Z,102276.16
2023-03-01T16:18:02.064Z,102279.13
2023-03-01T16:20:32.784Z,102257.81
2023-03-01T16:23:01.968Z,102277.63
2023-03-01T16:25:29.725Z,102260.13
2023-03-01T16:27:56.961Z,102278.84
2023-03-01T16:30:24.259Z,102188.72
2023-03-01T16:32:51.569Z,102266.28
2023-03-01T16:35:20.271Z,102271.59
2023-03-01T16:37:47.142Z,102263.16
2023-03-01T16:40:22.812Z,102290.22
2023-03-01T16:42:51.098Z,102277.91
2023-03-01T16:45:24.194Z,102295.13
2023-03-01T16:47:53.770Z,102284.31
2023-03-01T16:50:21.750Z,102262.97
2023-03-01T16:52:48.256Z,102270.91
2023-03-01T16:55:14.839Z,102268.25
2023-03-01T16:57:41.686Z,102266.91
2023-03-01T17:00:11.635Z,102181.09
2023-03-01T17:02:38.616Z,102292.25
2023-03-01T17:05:06.426Z,102219.13
2023-03-01T17:07:36.850Z,102227.22
2023-03-01T17:10:05.716Z,102204.22
2023-03-01T17:12:33.029Z,102300.47
2023-03-01T17:14:59.580Z,102301.19
2023-03-01T17:17:26.436Z,102288.69
2023-03-01T17:19:53.829Z,102269.06
2023-03-01T17:22:20.384Z,102280.34
2023-03-01T17:24:46.995Z,102290.28
2023-03-01T17:27:14.209Z,102292.38
2023-03-01T17:29:41.541Z,102181.44
2023-03-01T17:32:09.348Z,102304.38
2023-03-01T17:34:36.355Z,102292.19
2023-03-01T17:37:03.004Z,102315.53
2023-03-01T17:39:35.958Z,102295.16
2023-03-01T17:42:05.137Z,102287.31
2023-03-01T17:44:35.318Z,102194.97
2023-03-01T17:47:03.667Z,102206.38
2023-03-01T17:49:30.807Z,102205.59
2023-03-01T17:51:57.783Z,102315.13
2023-03-01T17:54:24.714Z,102324.50
2023-03-01T17:56:51.693Z,102232.63
2023-03-01T17:59:18.382Z,102302.91
2023-03-01T18:01:45.049Z,102223.25
2023-03-01T18:04:11.901Z,102211.66
2023-03-01T18:06:40.615Z,102334.09
2023-03-01T18:09:07.890Z,102286.16
2023-03-01T18:11:35.861Z,102335.81
2023-03-01T18:14:03.238Z,102338.44
2023-03-01T18:16:31.843Z,102328.94
2023-03-01T18:18:59.305Z,102325.63
2023-03-01T18:21:26.085Z,102342.50
2023-03-01T18:23:52.932Z,102298.25
2023-03-01T18:26:22.089Z,102224.06
2023-03-01T18:28:51.634Z,102229.53
2023-03-01T18:31:22.078Z,102314.78
2023-03-01T18:33:51.350Z,102263.66
2023-03-01T18:36:27.276Z,102299.13
2023-03-01T18:38:56.109Z,102273.44
2023-03-01T18:41:24.863Z,102290.31
2023-03-01T18:43:51.421Z,102309.69
2023-03-01T18:46:20.161Z,102312.84
2023-03-01T18:48:47.556Z,102276.34
2023-03-01T18:51:17.491Z,102311.75
2023-03-01T18:53:44.306Z,102305.50
2023-03-01T18:56:11.917Z,102283.03
2023-03-01T18:58:38.726Z,102306.78
2023-03-01T19:01:11.349Z,102311.59
2023-03-01T19:03:37.911Z,102191.47
2023-03-01T19:06:05.161Z,102290.91
2023-03-01T19:08:31.754Z,102279.81
2023-03-01T19:10:59.690Z,102197.78
2023-03-01T19:13:26.732Z,102196.19
2023-03-01T19:16:01.777Z,102287.91
2023-03-01T19:18:28.312Z,102305.66
2023-03-01T19:21:04.277Z,102304.44
2023-03-01T19:23:34.831Z,102270.97
2023-03-01T19:26:07.581Z,102194.03
2023-03-01T19:28:35.721Z,102309.00
2023-03-01T19:31:06.604Z,102122.09
2023-03-01T19:33:34.552Z,102290.06
2023-03-01T19:36:02.516Z,102320.66
2023-03-01T19:38:30.333Z,102291.47
2023-03-01T19:40:57.680Z,102314.91
2023-03-01T19:43:25.107Z,102236.03
2023-03-01T19:45:55.624Z,102298.78
2023-03-01T19:48:22.869Z,102279.34
2023-03-01T19:50:52.459Z,102279.91
2023-03-01T19:53:19.669Z,102286.25
2023-03-01T19:55:46.277Z,102304.66
2023-03-01T19:58:12.995Z,102189.63
2023-03-01T20:00:43.977Z,102275.09
2023-03-01T20:03:10.549Z,102284.19
2023-03-01T20:05:38.664Z,102170.06
2023-03-01T20:08:06.318Z,102319.25
2023-03-01T20:10:33.893Z,102184.97
2023-03-01T20:13:02.520Z,102304.16
2023-03-01T20:15:29.497Z,102306.75
2023-03-01T20:17:56.241Z,102312.44
2023-03-01T20:20:22.880Z,102301.41
2023-03-01T20:22:49.554Z,102189.94
2023-03-01T20:25:16.415Z,102212.00
2023-03-01T20:27:47.283Z,102093.34
2023-03-01T20:30:15.695Z,102176.97
2023-03-01T20:32:42.706Z,102289.88
2023-03-01T20:35:10.039Z,102181.75
2023-03-01T20:37:36.957Z,102302.94
2023-03-01T20:40:04.723Z,102199.72
2023-03-01T20:42:31.353Z,102284.19
2023-03-01T20:44:57.943Z,102263.81
2023-03-01T20:47:24.948Z,102270.63
2023-03-01T20:49:52.006Z,102280.38
2023-03-01T20:52:18.922Z,102254.22
2023-03-01T20:54:45.494Z,102277.88
2023-03-01T20:57:12.075Z,102158.78
2023-03-01T20:59:38.650Z,102264.91
2023-03-01T21:02:05.242Z,102238.44
2023-03-01T21:04:31.894Z,102161.50
2023-03-01T21:06:58.528Z,102271.28
2023-03-01T21:09:25.130Z,102242.41
2023-03-01T21:11:51.739Z,102273.94
2023-03-01T21:14:18.533Z,102289.94
2023-03-01T21:16:47.702Z,102158.44
2023-03-01T21:19:14.395Z,102185.38
2023-03-01T21:21:40.973Z,102219.22
2023-03-01T21:24:10.409Z,102171.63
2023-03-01T21:26:37.391Z,102149.47
2023-03-01T21:29:04.250Z,102187.22
2023-03-01T21:31:34.984Z,102257.25
2023-03-01T21:34:04.890Z,102249.78
2023-03-01T21:36:32.629Z,102187.91
2023-03-01T21:39:01.695Z,102272.03
2023-03-01T21:41:31.651Z,102293.63
2023-03-01T21:44:00.751Z,102193.03
2023-03-01T21:46:30.924Z,102100.16
2023-03-01T21:48:58.926Z,102242.50
2023-03-01T21:51:27.529Z,102279.75
2023-03-01T21:53:56.062Z,102274.06
2023-03-01T21:56:28.288Z,102272.59
2023-03-01T21:58:56.932Z,102251.59
2023-03-01T22:01:27.122Z,102160.84
2023-03-01T22:03:54.678Z,102260.66
2023-03-01T22:06:31.418Z,102274.88
2023-03-01T22:09:00.963Z,102261.31
2023-03-01T22:11:28.311Z,102270.41
2023-03-01T22:13:56.515Z,102267.94
2023-03-01T22:16:29.759Z,102171.78
2023-03-01T22:18:57.423Z,102251.72
2023-03-01T22:21:24.907Z,102254.56
2023-03-01T22:23:53.709Z,102254.56
2023-03-01T22:26:29.515Z,102187.25
2023-03-01T22:28:58.618Z,102204.28
2023-03-01T22:31:26.405Z,102183.38
2023-03-01T22:33:53.716Z,102244.31
2023-03-01T22:36:20.708Z,102161.09
2023-03-01T22:38:47.459Z,102280.28
2023-03-01T22:41:15.934Z,102187.81
2023-03-01T22:43:42.460Z,102295.19
2023-03-01T22:46:16.997Z,102270.94
2023-03-01T22:48:44.567Z,102300.19
2023-03-01T22:51:26.529Z,102204.28
2023-03-01T22:53:53.291Z,102293.13
2023-03-01T22:56:28.727Z,102186.53
2023-03-01T22:58:57.049Z,102298.25
2023-03-01T23:01:25.266Z,102300.31
2023-03-01T23:03:52.082Z,102298.94
2023-03-01T23:06:20.329Z,102223.16
2023-03-01T23:08:55.070Z,102201.78
2023-03-01T23:11:23.959Z,102303.81
2023-03-01T23:13:51.013Z,102293.00
2023-03-01T23:16:18.227Z,102184.72
2023-03-01T23:18:45.720Z,102305.31
2023-03-01T23:21:14.705Z,102298.25
2023-03-01T23:23:41.797Z,102278.22
2023-03-01T23:26:08.989Z,102283.47
2023-03-01T23:28:40.288Z,102163.34
2023-03-01T23:31:10.587Z,102155.16
2023-03-01T23:33:40.656Z,102171.88
2023-03-01T23:36:24.213Z,102286.06
2023-03-01T23:38:52.956Z,102156.88
2023-03-01T23:41:21.694Z,102277.31
2023-03-01T23:43:50.599Z,102278.91
2023-03-01T23:46:19.104Z,102159.50
2023-03-01T23:48:46.359Z,102248.19
2023-03-01T23:51:14.242Z,102171.22
2023-03-01T23:53:43.949Z,102216.81
2023-03-01T23:56:13.401Z,102261.84
2023-03-01T23:58:39.945Z,102246.47
